Главная страница
METAR-TAF:

METAR-TAF

Аэропорты :

Ватерлоо, Онтарио, Канада

широта: 43-28N, долгота: 080-23W, высота над уровнем моря: 317 м

Текущие метеонаблюдения

Эта сводка был подготовлена 36 минут назад, в 06:00 UTC
Ветер 3 Узел от северный, изменяющийся между западно-северо-западный и северный
Температура 10°C
Влажность 93%
Давление 1015 hPa
Видимость: 14.5 км
Сплошная облачность на высоте 12000 фута

METAR: CYKF 170600Z AUTO 36003KT 300V010 9SM OVC120 10/09 A2997 RMK SLP151

Время: 02:36 (06:36 UTC)

Прогноз

Эта сводка был подготовлена 4 часа и 58 минут назад, в 01:38 UTC
Прогноз действительный с 17-го 02 UTC до 17-го 14 UTC
Ветер 3 Узел переменных направлений
Видимость: 10 км
Рассеянная облачность на высоте 20000 фута
С 17-го 1000 UTC
Ветер 5 Узел от северо-восточный
Видимость: 10 км
Рассеянная облачность на высоте 10000 фута

TAF: CYKF 170138Z 1702/1714 VRB03KT P6SM BKN200 FM171000 04005KT P6SM BKN100 RMK FCST BASED ON AUTO OBS. NXT FCST BY 170800Z

Метеонаблюдения и прогнозы для более 4000 аэропортов (сводки METAR и TAF).

Имеющиеся станции представлены на карте желтыми и красными точками.

Чтобы увидеть название станции, наведите на нее мышь.

Затем щелкните, чтобы увидеть метеонаблюдения и метеопрогнозы.

Управление картой: чтобы увеличить масштаб, щелкните зеленые кнопки с черным крестиком; чтобы уменьшить масштаб, щелкните зеленую кнопку с тире; для просмотра соседних карт щелкайте зеленые стрелки.


METAR-TAF: